Time;durP1;ratioP1;P1;durP2;ratioP2;P2;SDS_P1;SDS_P2;PMS_P1;PMS_P2;Temp;Humidity;BMP_temperature;BMP_pressure;BME280_temperature;BME280_humidity;BME280_pressure;Samples;Min_cycle;Max_cycle;Signal;HPM_P1;HPM_P2
2023/01/27 00:02:15;;;;;;;20.00;11.38;;;4.30;99.90;;;;;;6163400;23;20027;-83
2023/01/27 00:04:46;;;;;;;22.15;11.57;;;4.20;99.90;;;;;;6187894;23;20460;-83
2023/01/27 00:07:45;;;;;;;18.02;12.27;;;4.20;99.90;;;;;;6162511;23;20417;-85
2023/01/27 00:10:32;;;;;;;19.70;12.35;;;4.20;99.90;;;;;;6163318;23;20021;-83
2023/01/27 00:13:32;;;;;;;25.85;13.05;;;4.40;99.90;;;;;;6162950;23;20134;-85
2023/01/27 00:15:58;;;;;;;21.23;12.73;;;4.30;99.90;;;;;;6163081;23;20044;-83
2023/01/27 00:18:32;;;;;;;20.35;13.00;;;4.00;99.90;;;;;;6161534;23;20464;-83
2023/01/27 00:24:37;;;;;;;20.75;12.90;;;4.30;99.90;;;;;;6183483;23;20072;-84
2023/01/27 00:27:06;;;;;;;21.42;13.15;;;3.90;99.90;;;;;;6158888;23;20092;-84
2023/01/27 00:29:35;;;;;;;20.33;12.30;;;4.30;99.90;;;;;;6158996;23;20152;-83
2023/01/27 00:35:20;;;;;;;20.67;11.88;;;4.20;99.90;;;;;;6182798;23;20404;-83
2023/01/27 00:37:54;;;;;;;19.27;10.88;;;3.70;99.90;;;;;;6159561;23;20025;-85
2023/01/27 00:40:32;;;;;;;20.25;11.10;;;3.90;99.90;;;;;;6158380;23;20460;-83
2023/01/27 00:43:03;;;;;;;17.33;10.48;;;3.80;99.90;;;;;;6159692;23;20100;-84
2023/01/27 00:45:51;;;;;;;22.15;10.45;;;4.10;99.90;;;;;;6161493;23;20448;-83
2023/01/27 00:48:28;;;;;;;15.88;9.60;;;4.20;99.90;;;;;;6169576;23;20009;-83
2023/01/27 00:51:07;;;;;;;16.17;8.67;;;3.80;99.90;;;;;;6161352;23;20091;-83
2023/01/27 00:53:58;;;;;;;13.07;7.68;;;3.80;99.90;;;;;;6161040;23;20090;-84
2023/01/27 00:56:32;;;;;;;13.07;7.40;;;3.90;99.90;;;;;;6161200;23;20428;-83
2023/01/27 00:59:01;;;;;;;15.02;7.47;;;4.00;99.90;;;;;;6185377;23;20067;-84
2023/01/27 01:01:30;;;;;;;13.32;7.05;;;3.80;99.90;;;;;;6160697;23;20322;-81
2023/01/27 01:03:59;;;;;;;13.05;6.88;;;3.80;99.90;;;;;;6188545;23;20020;-82
2023/01/27 01:06:25;;;;;;;13.55;7.10;;;3.80;99.90;;;;;;6164405;23;20008;-83
2023/01/27 01:08:52;;;;;;;13.02;6.35;;;3.90;99.90;;;;;;6161105;23;20048;-84
2023/01/27 01:11:19;;;;;;;15.13;6.82;;;3.90;99.90;;;;;;6162828;23;20017;-81
2023/01/27 01:13:46;;;;;;;11.63;6.50;;;3.90;99.90;;;;;;6161139;23;20067;-83
2023/01/27 01:16:21;;;;;;;10.95;6.40;;;4.10;99.90;;;;;;6161625;23;20051;-83
2023/01/27 01:18:47;;;;;;;11.35;5.85;;;4.00;99.90;;;;;;6160870;23;20072;-82
2023/01/27 01:21:14;;;;;;;10.88;6.13;;;4.00;99.90;;;;;;6162811;23;20018;-81
2023/01/27 01:23:52;;;;;;;17.50;5.70;;;4.10;99.90;;;;;;6158965;23;20501;-82
2023/01/27 01:26:24;;;;;;;10.95;5.38;;;4.10;99.90;;;;;;6162286;23;20015;-84
2023/01/27 01:28:50;;;;;;;8.80;4.85;;;3.80;99.90;;;;;;6160410;23;20340;-84
2023/01/27 01:31:17;;;;;;;9.27;4.65;;;4.20;99.90;;;;;;6159721;23;20020;-82
2023/01/27 01:33:44;;;;;;;8.52;4.97;;;3.90;99.90;;;;;;6184717;23;20104;-82
2023/01/27 01:36:23;;;;;;;9.82;4.60;;;3.90;99.90;;;;;;6159047;23;20012;-82
2023/01/27 01:38:56;;;;;;;7.03;4.10;;;3.90;99.90;;;;;;6161671;23;20048;-82
2023/01/27 01:41:25;;;;;;;6.40;3.83;;;4.00;99.90;;;;;;6162196;23;20116;-84
2023/01/27 01:44:11;;;;;;;5.28;3.00;;;4.20;99.90;;;;;;6160609;23;20016;-82
2023/01/27 01:46:37;;;;;;;7.30;2.95;;;4.00;99.90;;;;;;6159557;23;20099;-84
2023/01/27 01:49:04;;;;;;;6.65;3.03;;;4.10;99.90;;;;;;6162118;23;20341;-84
2023/01/27 01:51:47;;;;;;;8.23;3.33;;;4.30;99.90;;;;;;6160261;23;20385;-84
2023/01/27 01:54:24;;;;;;;6.88;3.03;;;4.10;99.90;;;;;;6161273;23;20013;-83
2023/01/27 01:56:59;;;;;;;12.82;3.65;;;4.10;99.90;;;;;;6162064;23;20020;-83
2023/01/27 01:59:33;;;;;;;14.13;3.83;;;4.10;99.90;;;;;;6162239;23;20095;-84
2023/01/27 02:02:05;;;;;;;10.23;3.70;;;4.20;99.90;;;;;;6161785;23;20503;-82
2023/01/27 02:04:43;;;;;;;7.85;3.38;;;4.20;99.90;;;;;;6161045;23;20039;-82
2023/01/27 02:07:17;;;;;;;6.90;3.08;;;3.90;99.90;;;;;;6160760;23;20013;-83
2023/01/27 02:09:43;;;;;;;11.35;4.03;;;4.10;99.90;;;;;;6160449;23;20021;-81
2023/01/27 02:12:09;;;;;;;10.35;3.22;;;3.90;99.90;;;;;;6161815;23;20016;-83
2023/01/27 02:14:35;;;;;;;10.93;3.30;;;4.10;99.90;;;;;;6160007;23;20027;-83
2023/01/27 02:17:03;;;;;;;8.63;2.92;;;4.20;99.90;;;;;;6161304;23;20039;-85
2023/01/27 02:19:46;;;;;;;5.30;2.42;;;4.00;99.90;;;;;;6161824;23;20069;-84
2023/01/27 02:22:32;;;;;;;8.98;2.50;;;3.90;99.90;;;;;;6187044;23;20024;-82
2023/01/27 02:25:25;;;;;;;4.78;1.95;;;4.00;99.90;;;;;;6160387;23;20096;-84
2023/01/27 02:27:51;;;;;;;6.43;1.90;;;4.10;99.90;;;;;;6143805;23;20016;-82
2023/01/27 02:30:22;;;;;;;10.98;1.67;;;4.10;99.90;;;;;;6186816;23;20019;-83
2023/01/27 02:32:48;;;;;;;6.03;1.65;;;4.00;99.90;;;;;;6161127;23;20091;-83
2023/01/27 02:35:20;;;;;;;3.97;1.70;;;4.20;99.90;;;;;;6158873;23;20063;-83
2023/01/27 02:37:48;;;;;;;6.10;1.50;;;4.10;99.90;;;;;;6159350;23;20079;-83
2023/01/27 02:40:19;;;;;;;5.78;1.50;;;4.00;99.90;;;;;;6159132;23;20009;-82
2023/01/27 02:42:44;;;;;;;2.47;1.30;;;4.20;99.90;;;;;;6184680;23;20009;-81
2023/01/27 02:45:10;;;;;;;4.55;1.50;;;4.20;99.90;;;;;;6161889;23;20016;-82
2023/01/27 02:47:38;;;;;;;7.65;1.70;;;4.20;99.90;;;;;;6160945;23;20438;-83
2023/01/27 02:50:05;;;;;;;3.80;1.10;;;4.10;99.90;;;;;;6160328;23;20016;-83
2023/01/27 02:52:34;;;;;;;7.70;1.70;;;4.10;99.90;;;;;;6157987;23;20014;-83
2023/01/27 02:55:18;;;;;;;6.57;1.33;;;4.20;99.90;;;;;;6186156;23;20019;-83
2023/01/27 02:57:46;;;;;;;2.75;1.45;;;4.20;99.90;;;;;;6161365;23;20013;-84
2023/01/27 03:00:28;;;;;;;;;;;;;;;;;;;;;
2023/01/27 03:02:56;;;;;;;7.70;1.20;;;4.00;99.90;;;;;;6183922;23;20373;-82
2023/01/27 03:05:23;;;;;;;4.05;1.35;;;4.10;99.90;;;;;;6160961;23;20021;-83
2023/01/27 03:07:54;;;;;;;5.28;1.25;;;4.00;99.90;;;;;;6160751;23;20128;-83
2023/01/27 03:10:26;;;;;;;4.28;1.08;;;4.00;99.90;;;;;;6160533;23;20463;-82
2023/01/27 03:12:52;;;;;;;7.00;1.83;;;4.10;99.90;;;;;;6160281;23;20055;-83
2023/01/27 03:18:11;;;;;;;3.35;1.35;;;4.00;99.90;;;;;;6185548;23;20421;-83
2023/01/27 03:20:43;;;;;;;2.63;1.02;;;4.00;99.90;;;;;;6162079;23;20023;-84
2023/01/27 03:23:15;;;;;;;6.28;1.35;;;4.10;99.90;;;;;;6186941;23;20024;-83
2023/01/27 03:25:46;;;;;;;5.45;1.20;;;4.10;99.90;;;;;;6163492;23;20019;-84
2023/01/27 03:28:14;;;;;;;9.85;1.20;;;4.10;99.90;;;;;;6186839;23;20428;-83
2023/01/27 03:30:41;;;;;;;6.50;1.40;;;4.00;99.90;;;;;;6162519;23;20008;-83
2023/01/27 03:33:09;;;;;;;4.22;1.23;;;3.90;99.90;;;;;;6162221;23;20137;-83
2023/01/27 03:35:46;;;;;;;5.28;1.50;;;3.90;99.90;;;;;;6162999;23;20015;-82
2023/01/27 03:46:27;;;;;;;4.80;1.17;;;4.10;99.90;;;;;;6156186;23;20100;-83
2023/01/27 03:48:55;;;;;;;6.22;1.17;;;4.00;99.90;;;;;;6132187;23;20360;-84
2023/01/27 03:51:24;;;;;;;3.55;1.10;;;4.00;99.90;;;;;;6130731;23;20013;-83
2023/01/27 03:53:50;;;;;;;7.93;1.40;;;3.80;99.90;;;;;;6130237;23;20024;-82
2023/01/27 03:56:18;;;;;;;2.70;1.35;;;3.90;99.90;;;;;;6155810;23;20013;-84
2023/01/27 03:58:47;;;;;;;8.13;1.42;;;3.80;99.90;;;;;;6156217;23;20407;-83
2023/01/27 04:01:16;;;;;;;6.13;1.42;;;3.70;99.90;;;;;;6130878;23;20021;-84
2023/01/27 04:09:21;;;;;;;6.28;1.30;;;3.70;99.90;;;;;;6155871;23;20531;-83
2023/01/27 04:11:59;;;;;;;6.32;1.10;;;3.60;99.90;;;;;;6155586;23;20055;-83
2023/01/27 04:14:34;;;;;;;3.90;1.17;;;3.80;99.90;;;;;;6155739;23;20061;-82
2023/01/27 04:17:05;;;;;;;5.50;1.08;;;3.60;99.90;;;;;;6163209;23;20103;-84
2023/01/27 04:19:34;;;;;;;3.75;1.30;;;3.60;99.90;;;;;;6164585;23;20071;-83
2023/01/27 04:22:00;;;;;;;3.95;1.45;;;3.70;99.90;;;;;;6163787;23;20100;-83
2023/01/27 04:24:26;;;;;;;4.20;1.17;;;3.60;99.90;;;;;;6160682;23;20099;-81
2023/01/27 04:27:02;;;;;;;3.25;1.20;;;3.80;99.90;;;;;;6161788;23;20020;-82
2023/01/27 04:29:34;;;;;;;7.15;1.40;;;3.70;99.90;;;;;;6162987;23;20424;-81
2023/01/27 04:32:15;;;;;;;10.55;1.65;;;3.80;99.90;;;;;;6162526;23;20067;-83
2023/01/27 04:34:41;;;;;;;6.55;1.17;;;3.60;99.90;;;;;;6162499;23;20071;-83
2023/01/27 04:37:08;;;;;;;4.65;1.40;;;3.80;99.90;;;;;;6170577;23;20019;-82
2023/01/27 04:40:15;;;;;;;8.60;1.65;;;3.70;99.90;;;;;;6164393;23;20028;-83
2023/01/27 04:42:43;;;;;;;4.78;1.30;;;3.70;99.90;;;;;;6169049;23;20020;-82
2023/01/27 04:45:09;;;;;;;7.05;1.42;;;3.70;99.90;;;;;;6162285;23;20016;-83
2023/01/27 04:47:35;;;;;;;5.65;1.75;;;3.70;99.90;;;;;;6161791;23;20013;-82
2023/01/27 04:50:01;;;;;;;5.80;1.60;;;3.60;99.90;;;;;;6161879;23;20012;-83
2023/01/27 04:52:27;;;;;;;4.30;1.52;;;3.70;99.90;;;;;;6162113;23;20428;-83
2023/01/27 04:54:56;;;;;;;4.25;1.33;;;3.60;99.90;;;;;;6161513;23;20013;-82
2023/01/27 04:57:25;;;;;;;3.50;1.30;;;3.60;99.90;;;;;;6160409;23;20174;-83
2023/01/27 04:59:54;;;;;;;8.25;2.03;;;3.60;99.90;;;;;;6161693;23;20020;-83
2023/01/27 05:02:29;;;;;;;3.30;1.20;;;3.60;99.90;;;;;;6162363;23;20107;-83
2023/01/27 05:05:03;;;;;;;6.05;1.48;;;3.50;99.90;;;;;;6161694;23;20017;-82
2023/01/27 05:07:30;;;;;;;4.18;1.42;;;3.60;99.90;;;;;;6161943;23;20044;-83
2023/01/27 05:09:58;;;;;;;4.70;1.38;;;3.60;99.90;;;;;;6163020;23;20017;-83
2023/01/27 05:12:27;;;;;;;4.88;1.30;;;3.80;99.90;;;;;;6160943;23;20091;-82
2023/01/27 05:14:59;;;;;;;6.57;1.70;;;3.60;99.90;;;;;;6173141;23;20134;-82
2023/01/27 05:17:37;;;;;;;6.15;1.70;;;3.70;99.90;;;;;;6162662;23;20305;-84
2023/01/27 05:20:12;;;;;;;5.38;1.70;;;3.80;99.90;;;;;;6163062;23;20178;-83
2023/01/27 05:22:41;;;;;;;8.07;1.90;;;3.70;99.90;;;;;;6185652;23;20083;-83
2023/01/27 05:25:12;;;;;;;6.95;1.70;;;3.60;99.90;;;;;;6159378;23;20099;-83
2023/01/27 05:27:47;;;;;;;5.55;1.65;;;3.60;99.90;;;;;;6185074;23;20019;-82
2023/01/27 05:30:19;;;;;;;5.47;2.08;;;3.60;99.90;;;;;;6160848;23;20019;-82
2023/01/27 05:32:53;;;;;;;6.90;1.83;;;3.50;99.90;;;;;;6185846;23;20278;-83
2023/01/27 05:35:24;;;;;;;4.22;1.55;;;3.70;99.90;;;;;;6159071;23;20313;-82
2023/01/27 05:37:58;;;;;;;7.88;1.90;;;3.70;99.90;;;;;;6161333;23;20016;-82
2023/01/27 05:40:53;;;;;;;4.78;1.80;;;3.70;99.90;;;;;;6162220;23;20024;-81
2023/01/27 05:43:19;;;;;;;4.95;1.63;;;3.70;99.90;;;;;;6160949;23;20028;-82
2023/01/27 05:45:51;;;;;;;3.75;1.48;;;3.70;99.90;;;;;;6160758;23;20018;-82
2023/01/27 05:48:20;;;;;;;8.98;1.60;;;3.60;99.90;;;;;;6177265;23;20020;-84
2023/01/27 05:50:54;;;;;;;4.60;1.38;;;3.60;99.90;;;;;;6162171;23;20009;-83
2023/01/27 05:53:20;;;;;;;4.83;1.47;;;3.70;99.90;;;;;;6161634;23;20019;-82
2023/01/27 05:56:07;;;;;;;4.60;1.52;;;3.70;99.90;;;;;;6159921;23;20075;-83
2023/01/27 05:58:33;;;;;;;3.17;1.20;;;3.70;99.90;;;;;;6161533;23;20432;-82
2023/01/27 06:01:14;;;;;;;5.35;1.05;;;3.60;99.90;;;;;;6186365;23;20024;-84
2023/01/27 06:04:12;;;;;;;5.15;1.25;;;3.60;99.90;;;;;;6159999;23;20071;-81
2023/01/27 06:13:45;;;;;;;4.60;1.30;;;3.50;99.90;;;;;;6176618;23;20021;-83
2023/01/27 06:16:42;;;;;;;6.45;1.55;;;3.60;99.90;;;;;;6093914;23;20100;-83
2023/01/27 06:19:31;;;;;;;4.07;1.08;;;3.40;99.90;;;;;;6095523;23;20024;-84
2023/01/27 06:22:12;;;;;;;1.88;1.20;;;3.50;99.90;;;;;;6057685;23;20019;-83
2023/01/27 06:29:05;;;;;;;3.97;1.38;;;3.40;99.90;;;;;;6063310;23;20099;-82
2023/01/27 06:31:36;;;;;;;1.95;0.90;;;3.40;99.90;;;;;;6036493;23;20329;-83
2023/01/27 06:34:02;;;;;;;5.80;1.10;;;3.30;99.90;;;;;;6037268;23;20058;-82
2023/01/27 06:36:31;;;;;;;3.38;1.10;;;3.30;99.90;;;;;;6038108;23;20353;-83
2023/01/27 06:39:00;;;;;;;4.10;0.90;;;3.30;99.90;;;;;;6037340;23;20098;-83
2023/01/27 06:41:28;;;;;;;3.50;1.27;;;3.30;99.90;;;;;;6038841;23;20116;-83
2023/01/27 06:43:54;;;;;;;3.78;1.20;;;3.50;99.90;;;;;;6039740;23;20054;-83
2023/01/27 06:46:22;;;;;;;2.30;1.00;;;3.40;99.90;;;;;;6044041;23;20020;-83
2023/01/27 06:49:01;;;;;;;5.00;1.20;;;3.30;99.90;;;;;;6118125;23;20068;-83
2023/01/27 06:51:40;;;;;;;3.92;1.40;;;3.30;99.90;;;;;;6093756;23;20092;-83
2023/01/27 06:54:28;;;;;;;4.50;1.25;;;3.40;99.90;;;;;;6116264;23;20141;-83
2023/01/27 06:57:03;;;;;;;4.03;1.10;;;3.30;99.90;;;;;;6094103;23;20020;-83
2023/01/27 06:59:34;;;;;;;4.75;1.10;;;3.50;99.90;;;;;;6153277;23;20083;-82
2023/01/27 07:02:14;;;;;;;2.30;1.05;;;3.30;99.90;;;;;;6129427;23;20100;-82
2023/01/27 07:04:50;;;;;;;6.05;1.35;;;3.50;99.90;;;;;;6153870;23;20406;-82
2023/01/27 07:07:29;;;;;;;2.13;1.13;;;3.40;99.90;;;;;;6152679;23;20025;-82
2023/01/27 07:10:05;;;;;;;3.30;1.00;;;3.40;99.90;;;;;;6163884;23;20013;-83
2023/01/27 07:13:22;;;;;;;3.15;1.00;;;3.40;99.90;;;;;;6157988;23;20055;-82
2023/01/27 07:16:26;;;;;;;7.28;1.15;;;3.30;99.90;;;;;;6006727;23;20015;-85
2023/01/27 07:19:27;;;;;;;3.97;1.15;;;3.30;99.90;;;;;;5947078;24;20017;-83
2023/01/27 07:22:36;;;;;;;7.18;1.27;;;3.30;99.90;;;;;;5978676;23;20030;-83
2023/01/27 07:25:12;;;;;;;5.93;1.45;;;3.30;99.90;;;;;;5896490;24;20028;-83
2023/01/27 07:27:50;;;;;;;3.63;1.17;;;3.40;99.90;;;;;;5890520;24;20096;-83
2023/01/27 07:30:23;;;;;;;7.35;1.35;;;3.40;99.90;;;;;;5894687;24;20196;-81
2023/01/27 07:32:54;;;;;;;6.20;1.30;;;3.50;99.90;;;;;;5896270;24;20020;-82
2023/01/27 07:35:28;;;;;;;6.80;1.55;;;3.40;99.90;;;;;;5896999;24;20025;-82
2023/01/27 07:38:07;;;;;;;9.95;1.67;;;3.40;99.90;;;;;;5897250;24;20097;-82
2023/01/27 07:40:35;;;;;;;7.50;1.52;;;3.40;99.90;;;;;;5895557;24;20082;-81
2023/01/27 07:43:01;;;;;;;4.75;1.38;;;3.30;99.90;;;;;;5872607;24;20054;-83
2023/01/27 07:45:27;;;;;;;7.40;1.42;;;3.40;99.90;;;;;;5896743;24;20687;-81
2023/01/27 07:47:58;;;;;;;9.65;1.45;;;3.40;99.90;;;;;;5895810;24;20032;-81
2023/01/27 07:50:24;;;;;;;3.42;1.35;;;3.30;99.90;;;;;;5958082;24;20378;-84
2023/01/27 07:52:49;;;;;;;7.72;1.80;;;3.40;99.90;;;;;;5995284;23;20052;-82
2023/01/27 07:55:15;;;;;;;3.78;1.33;;;3.30;99.90;;;;;;6065236;23;20018;-82
2023/01/27 07:57:41;;;;;;;9.30;1.42;;;3.30;99.90;;;;;;6065847;23;20023;-82
2023/01/27 08:00:08;;;;;;;6.10;1.35;;;3.20;99.90;;;;;;6157461;23;20134;-82
2023/01/27 08:02:34;;;;;;;10.85;1.92;;;3.50;99.90;;;;;;6155195;23;20019;-82
2023/01/27 08:08:44;;;;;;;14.40;1.90;;;3.50;99.90;;;;;;6187180;23;20020;-82
2023/01/27 08:15:20;;;;;;;5.85;1.70;;;3.30;99.90;;;;;;5898832;23;20353;-82
2023/01/27 08:18:49;;;;;;;7.82;1.85;;;3.40;99.90;;;;;;5914764;24;20425;-82
2023/01/27 08:21:14;;;;;;;5.75;1.75;;;3.50;99.90;;;;;;5922117;23;20025;-80
2023/01/27 08:23:44;;;;;;;18.08;2.08;;;3.40;99.90;;;;;;5922503;24;20035;-84
2023/01/27 08:26:17;;;;;;;12.15;1.90;;;3.30;99.90;;;;;;5922323;24;20017;-80
2023/01/27 08:28:55;;;;;;;7.97;1.80;;;3.30;99.90;;;;;;5921445;24;20020;-81
2023/01/27 08:31:42;;;;;;;10.38;2.08;;;3.30;99.90;;;;;;5922423;24;20899;-81
2023/01/27 08:34:08;;;;;;;8.02;2.03;;;3.30;99.90;;;;;;5921405;24;20069;-81
2023/01/27 08:36:33;;;;;;;13.00;2.30;;;3.50;99.90;;;;;;5924465;24;20024;-82
2023/01/27 08:39:04;;;;;;;9.32;1.75;;;3.60;99.90;;;;;;5921330;23;20020;-82
2023/01/27 08:41:30;;;;;;;8.32;2.03;;;3.60;99.90;;;;;;5898877;24;20027;-81
2023/01/27 08:43:58;;;;;;;9.20;1.90;;;3.70;99.90;;;;;;5922520;24;20020;-81
2023/01/27 08:46:24;;;;;;;9.70;2.00;;;3.70;99.90;;;;;;5922480;24;20093;-83
2023/01/27 08:48:50;;;;;;;9.95;2.60;;;3.80;99.90;;;;;;5987479;23;20019;-84
2023/01/27 08:51:16;;;;;;;11.27;1.98;;;3.80;99.90;;;;;;6007455;23;20118;-83
2023/01/27 08:55:00;;;;;;;;;;;;;;;;;;;;;
2023/01/27 09:04:39;;;;;;;9.80;1.98;;;3.70;99.90;;;;;;6094998;23;20121;-82
2023/01/27 09:07:30;;;;;;;5.30;1.88;;;3.60;99.90;;;;;;6001198;23;20020;-79
2023/01/27 09:09:55;;;;;;;8.10;2.10;;;4.00;99.90;;;;;;5979414;23;20114;-80
2023/01/27 09:12:21;;;;;;;8.65;2.20;;;3.90;99.90;;;;;;5980784;23;20476;-81
2023/01/27 09:14:47;;;;;;;10.57;2.22;;;3.70;99.90;;;;;;6004391;23;20028;-82
2023/01/27 09:17:16;;;;;;;15.75;2.10;;;3.60;99.90;;;;;;5954710;23;20160;-82
2023/01/27 09:19:41;;;;;;;8.27;2.10;;;3.80;99.90;;;;;;5979740;23;20047;-83
2023/01/27 09:22:07;;;;;;;7.80;1.98;;;3.80;99.90;;;;;;6004034;23;20020;-82
2023/01/27 09:24:33;;;;;;;9.20;2.20;;;4.10;99.90;;;;;;5979423;23;20020;-81
2023/01/27 09:27:17;;;;;;;5.65;2.05;;;4.10;99.90;;;;;;6002233;23;20030;-81
2023/01/27 09:29:43;;;;;;;14.40;2.05;;;3.90;99.90;;;;;;6000771;23;20019;-83
2023/01/27 09:32:11;;;;;;;6.72;2.05;;;3.80;99.90;;;;;;5978514;23;20512;-81
2023/01/27 09:34:37;;;;;;;7.60;2.03;;;4.10;99.90;;;;;;5980238;23;20027;-82
2023/01/27 09:37:08;;;;;;;5.75;2.17;;;3.90;99.90;;;;;;5978863;23;20028;-82
2023/01/27 09:39:38;;;;;;;6.97;1.92;;;4.10;99.90;;;;;;5980196;23;20026;-82
2023/01/27 09:46:21;;;;;;;8.05;2.03;;;3.80;99.90;;;;;;6207155;23;20066;-82
2023/01/27 09:49:11;;;;;;;5.38;1.73;;;4.10;99.90;;;;;;6154128;23;20111;-81
2023/01/27 09:51:42;;;;;;;4.97;1.48;;;4.20;99.90;;;;;;6155981;23;20019;-84
2023/01/27 09:54:39;;;;;;;5.10;1.50;;;4.00;99.90;;;;;;6183070;23;20092;-82
2023/01/27 09:57:19;;;;;;;6.43;1.65;;;4.10;99.90;;;;;;6161025;23;20055;-82
2023/01/27 09:59:47;;;;;;;2.50;0.90;;;4.20;99.90;;;;;;6161156;23;20695;-82
2023/01/27 10:02:47;;;;;;;2.15;0.80;;;4.30;99.90;;;;;;6160948;23;20432;-82
2023/01/27 10:05:27;;;;;;;3.90;0.90;;;4.20;99.90;;;;;;6161065;23;20317;-82
2023/01/27 10:08:15;;;;;;;2.50;0.80;;;4.10;99.90;;;;;;6161184;23;20463;-82
2023/01/27 10:11:05;;;;;;;4.90;1.30;;;4.10;99.90;;;;;;6180617;23;20017;-82
2023/01/27 10:13:58;;;;;;;2.60;1.20;;;4.30;99.90;;;;;;6131268;23;20013;-82
2023/01/27 10:16:55;;;;;;;2.65;1.10;;;4.30;99.90;;;;;;6132432;23;20413;-82
2023/01/27 10:19:40;;;;;;;9.02;1.52;;;4.30;99.90;;;;;;6132154;23;20013;-83
2023/01/27 10:22:48;;;;;;;2.05;1.10;;;4.20;99.90;;;;;;6131221;23;20139;-82
2023/01/27 10:25:34;;;;;;;7.35;1.88;;;4.10;99.90;;;;;;6038024;23;20042;-81
2023/01/27 10:28:10;;;;;;;6.53;1.42;;;4.40;99.90;;;;;;6014909;23;20341;-82
2023/01/27 10:30:37;;;;;;;5.50;1.40;;;4.20;99.90;;;;;;6015105;23;20014;-81
2023/01/27 10:33:20;;;;;;;3.05;0.80;;;4.40;99.90;;;;;;6013742;23;20019;-82
2023/01/27 10:35:58;;;;;;;2.30;0.80;;;4.20;99.90;;;;;;6036987;23;20765;-81
2023/01/27 10:38:36;;;;;;;2.78;0.85;;;4.10;99.90;;;;;;6013690;23;20686;-83
2023/01/27 10:41:04;;;;;;;2.00;1.13;;;4.20;99.90;;;;;;6012874;23;20344;-82
2023/01/27 10:44:17;;;;;;;1.40;0.68;;;4.20;99.90;;;;;;6010705;23;20015;-81
2023/01/27 10:51:57;;;;;;;2.33;1.15;;;4.30;99.90;;;;;;5894492;24;20333;-81
2023/01/27 10:54:54;;;;;;;1.20;1.10;;;4.40;99.90;;;;;;5761054;24;20431;-82
2023/01/27 10:57:36;;;;;;;3.25;1.10;;;4.30;99.90;;;;;;5764407;24;20042;-84
2023/01/27 11:00:15;;;;;;;3.42;1.25;;;4.10;99.90;;;;;;5760769;24;20054;-83
2023/01/27 11:02:59;;;;;;;2.75;0.90;;;4.20;99.90;;;;;;5792735;24;20082;-82
2023/01/27 11:05:53;;;;;;;2.25;1.20;;;4.10;99.90;;;;;;5840191;24;20025;-83
2023/01/27 11:08:39;;;;;;;1.88;1.00;;;4.10;99.90;;;;;;5843670;24;20467;-83
2023/01/27 11:14:58;;;;;;;4.75;1.75;;;4.10;99.90;;;;;;5890848;24;20114;-82
2023/01/27 11:17:42;;;;;;;2.28;1.83;;;4.10;99.90;;;;;;5868094;24;20036;-82
2023/01/27 11:20:34;;;;;;;5.03;2.13;;;4.10;99.90;;;;;;5983403;23;20090;-82
2023/01/27 11:23:26;;;;;;;3.42;1.88;;;3.90;99.90;;;;;;6102846;23;20051;-82
2023/01/27 11:26:00;;;;;;;5.10;2.35;;;3.90;99.90;;;;;;6100174;23;20073;-83
2023/01/27 11:28:59;;;;;;;3.10;2.35;;;4.00;99.90;;;;;;6096049;23;20081;-82
2023/01/27 11:31:36;;;;;;;5.28;2.78;;;4.00;99.90;;;;;;6122455;23;20017;-81
2023/01/27 11:34:34;;;;;;;4.75;2.88;;;4.00;99.90;;;;;;6122411;23;20028;-82
2023/01/27 11:37:10;;;;;;;3.42;3.00;;;4.00;99.90;;;;;;6121064;23;20022;-82
2023/01/27 11:39:36;;;;;;;6.05;2.90;;;4.00;99.90;;;;;;6123271;23;20040;-84
2023/01/27 11:42:02;;;;;;;4.15;2.83;;;4.00;99.90;;;;;;6162934;23;20036;-84
2023/01/27 11:44:33;;;;;;;3.78;2.78;;;3.80;99.90;;;;;;6186314;23;20096;-82
2023/01/27 11:47:03;;;;;;;4.18;2.70;;;3.70;99.90;;;;;;6164393;23;20028;-84
2023/01/27 11:49:34;;;;;;;3.28;2.60;;;3.80;99.90;;;;;;6158641;23;20413;-82
2023/01/27 11:52:12;;;;;;;6.18;2.97;;;3.80;99.90;;;;;;6162066;23;20008;-84
2023/01/27 11:55:01;;;;;;;4.53;2.90;;;3.60;99.90;;;;;;6159234;23;20070;-79
2023/01/27 12:05:13;;;;;;;4.68;3.35;;;3.60;99.90;;;;;;5895841;24;20052;-83
2023/01/27 12:07:59;;;;;;;3.50;3.20;;;3.80;99.90;;;;;;5895625;24;20020;-81
2023/01/27 12:14:28;;;;;;;10.13;3.10;;;3.80;99.90;;;;;;5888283;24;20106;-81
2023/01/27 12:17:02;;;;;;;4.47;2.90;;;3.90;99.90;;;;;;5869587;24;20025;-82
2023/01/27 12:19:42;;;;;;;4.10;3.28;;;3.60;99.90;;;;;;5847288;24;20026;-82
2023/01/27 12:22:33;;;;;;;3.92;3.28;;;3.80;99.90;;;;;;5847730;24;20129;-82
2023/01/27 12:25:08;;;;;;;8.77;3.20;;;3.60;99.90;;;;;;5847846;24;20018;-81
2023/01/27 12:31:48;;;;;;;4.10;3.70;;;3.60;99.90;;;;;;5918633;24;20026;-80
2023/01/27 12:34:24;;;;;;;4.10;3.70;;;3.60;99.90;;;;;;5893412;24;20017;-80
2023/01/27 12:36:56;;;;;;;4.45;3.55;;;3.80;99.90;;;;;;5910423;24;20532;-81
2023/01/27 12:39:48;;;;;;;4.68;3.95;;;3.80;99.90;;;;;;6003177;23;20169;-80
2023/01/27 12:43:25;;;;;;;4.40;3.67;;;3.90;99.90;;;;;;6081866;23;20013;-80
2023/01/27 12:46:50;;;;;;;8.07;4.00;;;3.80;99.90;;;;;;5945978;24;20093;-80
2023/01/27 12:53:42;;;;;;;5.32;3.35;;;3.60;99.90;;;;;;5884685;24;20032;-80
2023/01/27 13:04:13;;;;;;;4.55;3.28;;;3.70;99.90;;;;;;5764699;24;20057;-80
2023/01/27 13:07:13;;;;;;;8.75;3.20;;;3.70;99.90;;;;;;5791696;24;20011;-81
2023/01/27 13:09:53;;;;;;;4.40;3.05;;;3.50;99.90;;;;;;5789717;24;20019;-80
2023/01/27 13:12:27;;;;;;;4.28;3.08;;;3.70;99.90;;;;;;5789175;24;20428;-81
2023/01/27 13:15:04;;;;;;;3.17;2.58;;;3.50;99.90;;;;;;5793465;24;20340;-81
2023/01/27 13:17:41;;;;;;;3.25;2.95;;;3.50;99.90;;;;;;5792827;24;20081;-82
2023/01/27 13:20:24;;;;;;;3.33;2.70;;;3.60;99.90;;;;;;5792194;24;20034;-80
2023/01/27 13:23:04;;;;;;;3.53;2.85;;;3.70;99.90;;;;;;5815290;24;20078;-81
2023/01/27 13:25:48;;;;;;;3.97;2.47;;;3.50;99.90;;;;;;5919163;23;20024;-82
2023/01/27 13:28:43;;;;;;;2.67;2.47;;;3.70;99.90;;;;;;5982245;23;20016;-81
2023/01/27 13:31:41;;;;;;;3.20;2.90;;;3.80;99.90;;;;;;5981496;23;20536;-81
2023/01/27 13:34:45;;;;;;;3.20;2.60;;;3.80;99.90;;;;;;5971620;23;20020;-80
2023/01/27 13:37:20;;;;;;;2.70;2.50;;;3.80;99.90;;;;;;6001821;23;20015;-82
2023/01/27 13:40:17;;;;;;;3.22;2.60;;;3.80;99.90;;;;;;6093969;23;20270;-81
2023/01/27 13:43:15;;;;;;;4.53;2.90;;;3.80;99.90;;;;;;6156086;23;20024;-82
2023/01/27 13:46:03;;;;;;;2.72;2.50;;;3.60;99.90;;;;;;6111026;23;20028;-81
2023/01/27 13:48:45;;;;;;;3.45;2.78;;;3.70;99.90;;;;;;6147238;23;20082;-81
2023/01/27 13:51:23;;;;;;;5.97;2.92;;;3.70;99.90;;;;;;6168588;23;20039;-81
2023/01/27 13:54:01;;;;;;;3.05;2.70;;;3.70;99.90;;;;;;6185527;23;20013;-82
2023/01/27 13:57:04;;;;;;;2.83;2.53;;;3.70;99.90;;;;;;6161065;23;20016;-82
2023/01/27 13:59:49;;;;;;;2.97;2.13;;;3.70;99.90;;;;;;6160343;23;20495;-81
2023/01/27 14:02:53;;;;;;;3.03;1.95;;;3.70;99.90;;;;;;6183695;23;20521;-82
2023/01/27 14:06:12;;;;;;;1.67;1.50;;;3.70;99.90;;;;;;6184902;23;20027;-81
2023/01/27 14:09:15;;;;;;;2.88;1.50;;;3.70;99.90;;;;;;6158969;23;20493;-81
2023/01/27 14:20:03;;;;;;;;;;;;;;;;;;;;;
2023/01/27 14:23:20;;;;;;;1.50;1.30;;;3.70;99.90;;;;;;6124791;23;20355;-81
2023/01/27 14:26:03;;;;;;;4.30;1.40;;;3.90;99.90;;;;;;6017145;23;20053;-81
2023/01/27 14:29:09;;;;;;;2.97;1.30;;;3.90;99.90;;;;;;6037724;23;20022;-82
2023/01/27 14:31:47;;;;;;;1.63;1.30;;;3.70;99.90;;;;;;6037425;23;20140;-83
2023/01/27 14:34:24;;;;;;;1.40;1.30;;;3.90;99.90;;;;;;6035057;23;20030;-81
2023/01/27 14:37:15;;;;;;;1.83;1.30;;;3.70;99.90;;;;;;6035960;23;20026;-81
2023/01/27 14:40:12;;;;;;;2.45;1.38;;;3.70;99.90;;;;;;6011952;23;20028;-81
2023/01/27 14:42:56;;;;;;;3.25;1.73;;;3.60;99.90;;;;;;6012375;23;20050;-83
2023/01/27 14:45:33;;;;;;;2.85;2.28;;;3.70;99.90;;;;;;6036362;23;20145;-83
2023/01/27 14:48:24;;;;;;;2.58;2.05;;;3.70;99.90;;;;;;6034541;23;20030;-83
2023/01/27 14:51:16;;;;;;;1.88;1.55;;;3.70;99.90;;;;;;6036485;23;20130;-82
2023/01/27 14:54:13;;;;;;;3.38;1.30;;;3.60;99.90;;;;;;6117802;23;20032;-82
2023/01/27 14:57:22;;;;;;;2.30;1.52;;;3.70;99.90;;;;;;6121990;23;20023;-84
2023/01/27 15:00:07;;;;;;;3.45;1.55;;;3.60;99.90;;;;;;6062614;23;20098;-82
2023/01/27 15:02:47;;;;;;;1.50;1.40;;;3.60;99.90;;;;;;6089993;23;20026;-83
2023/01/27 15:05:16;;;;;;;1.58;1.40;;;3.70;99.90;;;;;;6042156;23;20078;-84
2023/01/27 15:08:05;;;;;;;2.08;1.98;;;3.50;99.90;;;;;;6041952;23;20061;-81
2023/01/27 15:10:32;;;;;;;2.10;1.80;;;3.50;99.90;;;;;;6090964;23;20025;-84
2023/01/27 15:13:48;;;;;;;1.70;1.60;;;3.50;99.90;;;;;;6066817;23;20018;-81
2023/01/27 15:16:20;;;;;;;3.95;1.67;;;3.60;99.90;;;;;;6067263;23;20090;-84
2023/01/27 15:19:23;;;;;;;2.03;1.83;;;3.50;99.90;;;;;;6068754;23;20042;-82
2023/01/27 15:22:09;;;;;;;5.05;2.30;;;3.40;99.90;;;;;;6045087;23;20022;-82
2023/01/27 15:24:43;;;;;;;4.05;3.63;;;3.50;99.90;;;;;;5982869;23;20479;-82
2023/01/27 15:31:42;;;;;;;3.10;2.80;;;3.50;99.90;;;;;;6068016;23;20057;-83
2023/01/27 15:35:28;;;;;;;2.67;2.47;;;3.50;99.90;;;;;;6091316;23;20018;-84
2023/01/27 15:38:18;;;;;;;2.72;2.30;;;3.50;99.90;;;;;;6035649;23;20098;-83